createdAt,value
2023-04-22T00:01:25.456Z,100847.22
2023-04-22T00:03:52.161Z,100854.28
2023-04-22T00:06:19.555Z,100861.41
2023-04-22T00:08:46.225Z,100857.22
2023-04-22T00:11:12.774Z,100862.34
2023-04-22T00:13:39.387Z,100859.56
2023-04-22T00:16:06.205Z,100852.50
2023-04-22T00:18:36.338Z,100855.31
2023-04-22T00:21:03.947Z,100854.66
2023-04-22T00:23:30.949Z,100845.19
2023-04-22T00:25:57.461Z,100847.09
2023-04-22T00:28:23.997Z,100853.31
2023-04-22T00:30:50.872Z,100854.28
2023-04-22T00:33:17.439Z,100856.13
2023-04-22T00:35:46.294Z,100854.44
2023-04-22T00:38:12.888Z,100850.09
2023-04-22T00:40:39.603Z,100853.47
2023-04-22T00:43:06.192Z,100854.28
2023-04-22T00:45:32.765Z,100850.09
2023-04-22T00:48:00.068Z,100845.47
2023-04-22T00:50:27.000Z,100853.31
2023-04-22T00:52:53.523Z,100853.31
2023-04-22T00:55:20.299Z,100854.16
2023-04-22T00:57:48.809Z,100849.72
2023-04-22T01:00:15.339Z,100855.03
2023-04-22T01:02:42.116Z,100848.09
2023-04-22T01:05:09.665Z,100849.97
2023-04-22T01:07:36.642Z,100850.09
2023-04-22T01:10:04.527Z,100844.06
2023-04-22T01:12:31.081Z,100843.31
2023-04-22T01:14:57.621Z,100839.81
2023-04-22T01:17:24.747Z,100844.22
2023-04-22T01:19:52.754Z,100832.78
2023-04-22T01:22:19.597Z,100839.97
2023-04-22T01:24:46.190Z,100833.06
2023-04-22T01:27:12.742Z,100831.56
2023-04-22T01:29:39.517Z,100846.63
2023-04-22T01:32:07.007Z,100835.41
2023-04-22T01:34:33.988Z,100832.06
2023-04-22T01:37:00.624Z,100828.66
2023-04-22T01:39:27.303Z,100827.81
2023-04-22T01:41:53.921Z,100823.59
2023-04-22T01:44:20.422Z,100827.19
2023-04-22T01:46:46.942Z,100829.91
2023-04-22T01:49:13.517Z,100831.72
2023-04-22T01:51:40.406Z,100827.44
2023-04-22T01:54:06.912Z,100836.22
2023-04-22T01:56:33.454Z,100834.50
2023-04-22T01:58:59.994Z,100832.72
2023-04-22T02:01:26.614Z,100830.06
2023-04-22T02:03:53.200Z,100836.19
2023-04-22T02:06:19.798Z,100827.47
2023-04-22T02:08:46.374Z,100830.06
2023-04-22T02:11:12.903Z,100828.41
2023-04-22T02:13:41.641Z,100827.38
2023-04-22T02:16:08.434Z,100830.88
2023-04-22T02:18:35.310Z,100831.03
2023-04-22T02:21:02.016Z,100821.63
2023-04-22T02:23:28.970Z,100815.63
2023-04-22T02:25:56.051Z,100819.16
2023-04-22T02:28:22.788Z,100818.38
2023-04-22T02:30:49.492Z,100812.28
2023-04-22T02:33:16.036Z,100810.59
2023-04-22T02:35:42.495Z,100815.78
2023-04-22T02:38:09.015Z,100804.38
2023-04-22T02:40:35.565Z,100802.53
2023-04-22T02:43:02.061Z,100805.06
2023-04-22T02:45:28.646Z,100802.44
2023-04-22T02:47:55.279Z,100795.50
2023-04-22T02:50:21.878Z,100789.34
2023-04-22T02:52:48.476Z,100799.84
2023-04-22T02:55:15.033Z,100797.19
2023-04-22T02:57:41.937Z,100796.22
2023-04-22T03:00:09.038Z,100794.31
2023-04-22T03:02:36.178Z,100796.91
2023-04-22T03:05:02.789Z,100795.00
2023-04-22T03:07:29.384Z,100792.28
2023-04-22T03:09:55.992Z,100797.41
2023-04-22T03:12:22.537Z,100785.88
2023-04-22T03:14:49.144Z,100796.19
2023-04-22T03:17:15.902Z,100783.81
2023-04-22T03:19:42.798Z,100781.13
2023-04-22T03:22:09.437Z,100776.75
2023-04-22T03:24:35.925Z,100781.09
2023-04-22T03:27:04.012Z,100778.44
2023-04-22T03:29:30.561Z,100774.00
2023-04-22T03:31:57.104Z,100775.69
2023-04-22T03:34:23.699Z,100773.84
2023-04-22T03:36:50.193Z,100771.16
2023-04-22T03:39:16.838Z,100765.78
2023-04-22T03:41:43.371Z,100761.34
2023-04-22T03:44:10.609Z,100760.22
2023-04-22T03:46:37.100Z,100765.50
2023-04-22T03:49:04.082Z,100761.13
2023-04-22T03:51:30.783Z,100761.13
2023-04-22T03:53:57.333Z,100748.84
2023-04-22T03:56:24.650Z,100747.19
2023-04-22T03:58:51.586Z,100749.00
2023-04-22T04:01:18.252Z,100749.03
2023-04-22T04:03:44.966Z,100745.50
2023-04-22T04:06:11.689Z,100742.09
2023-04-22T04:08:38.218Z,100746.34
2023-04-22T04:11:04.882Z,100741.22
2023-04-22T04:13:32.480Z,100749.16
2023-04-22T04:16:00.363Z,100745.72
2023-04-22T04:18:27.082Z,100744.91
2023-04-22T04:20:53.638Z,100741.44
2023-04-22T04:23:20.305Z,100737.13
2023-04-22T04:25:48.076Z,100730.16
2023-04-22T04:28:14.584Z,100735.34
2023-04-22T04:30:41.770Z,100729.28
2023-04-22T04:33:08.440Z,100731.88
2023-04-22T04:35:36.413Z,100731.03
2023-04-22T04:38:03.576Z,100724.81
2023-04-22T04:40:30.601Z,100723.06
2023-04-22T04:43:02.353Z,100723.88
2023-04-22T04:45:29.958Z,100721.22
2023-04-22T04:47:57.009Z,100718.53
2023-04-22T04:50:23.825Z,100727.19
2023-04-22T04:52:50.322Z,100722.72
2023-04-22T04:55:17.479Z,100715.72
2023-04-22T04:57:45.417Z,100715.66
2023-04-22T05:00:13.836Z,100713.03
2023-04-22T05:02:41.112Z,100709.44
2023-04-22T05:05:08.613Z,100709.38
2023-04-22T05:07:35.509Z,100707.59
2023-04-22T05:10:02.433Z,100716.44
2023-04-22T05:12:29.163Z,100716.34
2023-04-22T05:14:55.765Z,100723.28
2023-04-22T05:17:22.428Z,100722.31
2023-04-22T05:19:49.049Z,100726.53
2023-04-22T05:22:15.905Z,100727.34
2023-04-22T05:24:42.417Z,100728.09
2023-04-22T05:27:09.266Z,100723.56
2023-04-22T05:29:35.921Z,100732.28
2023-04-22T05:32:02.531Z,100727.66
2023-04-22T05:34:29.164Z,100735.44
2023-04-22T05:36:55.796Z,100742.31
2023-04-22T05:39:22.379Z,100739.44
2023-04-22T05:41:48.949Z,100726.97
2023-04-22T05:44:17.487Z,100737.38
2023-04-22T05:46:44.181Z,100734.28
2023-04-22T05:49:10.759Z,100727.97
2023-04-22T05:51:37.589Z,100725.97
2023-04-22T05:54:04.293Z,100724.16
2023-04-22T05:56:30.830Z,100717.09
2023-04-22T05:58:57.388Z,100718.50
2023-04-22T06:01:24.851Z,100714.03
2023-04-22T06:03:51.744Z,100710.34
2023-04-22T06:06:18.814Z,100706.53
2023-04-22T06:08:45.343Z,100705.44
2023-04-22T06:11:11.940Z,100706.94
2023-04-22T06:13:38.648Z,100703.13
2023-04-22T06:18:38.479Z,100702.25
2023-04-22T06:21:05.710Z,100707.53
2023-04-22T06:23:32.278Z,100711.75
2023-04-22T06:25:58.832Z,100711.56
2023-04-22T06:28:25.328Z,100694.41
2023-04-22T06:30:51.913Z,100693.28
2023-04-22T06:33:18.457Z,100696.06
2023-04-22T06:35:45.392Z,100701.75
2023-04-22T06:38:12.053Z,100703.22
2023-04-22T06:40:38.536Z,100702.03
2023-04-22T06:43:05.049Z,100693.56
2023-04-22T06:45:31.596Z,100696.03
2023-04-22T06:47:58.146Z,100689.41
2023-04-22T06:50:25.194Z,100684.00
2023-04-22T06:52:51.713Z,100675.75
2023-04-22T06:55:18.486Z,100672.81
2023-04-22T06:57:44.993Z,100671.97
2023-04-22T07:00:12.297Z,100687.97
2023-04-22T07:02:38.940Z,100684.91
2023-04-22T07:05:05.535Z,100691.34
2023-04-22T07:07:32.098Z,100699.19
2023-04-22T07:09:58.661Z,100693.31
2023-04-22T07:12:25.751Z,100687.16
2023-04-22T07:14:52.292Z,100690.63
2023-04-22T07:17:22.325Z,100683.31
2023-04-22T07:19:49.481Z,100684.84
2023-04-22T07:22:15.997Z,100688.56
2023-04-22T07:24:42.562Z,100696.97
2023-04-22T07:27:09.063Z,100707.41
2023-04-22T07:29:35.644Z,100708.25
2023-04-22T07:32:02.232Z,100713.75
2023-04-22T07:34:28.814Z,100704.28
2023-04-22T07:36:55.445Z,100696.13
2023-04-22T07:39:22.692Z,100686.38
2023-04-22T07:41:49.409Z,100693.88
2023-04-22T07:44:18.497Z,100691.47
2023-04-22T07:46:45.052Z,100692.72
2023-04-22T07:49:14.077Z,100683.91
2023-04-22T07:51:41.112Z,100667.94
2023-04-22T07:54:07.714Z,100662.91
2023-04-22T07:56:34.686Z,100653.03
2023-04-22T07:59:01.321Z,100642.56
2023-04-22T08:01:27.805Z,100643.50
2023-04-22T08:03:54.583Z,100651.59
2023-04-22T08:06:21.430Z,100652.72
2023-04-22T08:08:48.055Z,100651.81
2023-04-22T08:11:14.635Z,100653.09
2023-04-22T08:13:41.202Z,100653.38
2023-04-22T08:16:08.047Z,100646.09
2023-04-22T08:18:35.368Z,100648.84
2023-04-22T08:21:02.215Z,100653.91
2023-04-22T08:23:28.727Z,100655.00
2023-04-22T08:25:55.335Z,100658.13
2023-04-22T08:28:21.904Z,100655.03
2023-04-22T08:30:48.454Z,100658.19
2023-04-22T08:33:16.879Z,100646.91
2023-04-22T08:35:43.457Z,100642.66
2023-04-22T08:38:10.089Z,100637.03
2023-04-22T08:40:39.255Z,100642.13
2023-04-22T08:43:05.870Z,100637.63
2023-04-22T08:45:32.897Z,100627.63
2023-04-22T08:47:59.714Z,100625.06
2023-04-22T08:50:30.000Z,100611.81
2023-04-22T08:52:56.572Z,100610.44
2023-04-22T08:55:23.261Z,100609.06
2023-04-22T08:57:50.306Z,100599.09
2023-04-22T09:00:18.939Z,100592.16
2023-04-22T09:02:46.338Z,100577.47
2023-04-22T09:05:13.878Z,100567.78
2023-04-22T09:07:41.112Z,100573.47
2023-04-22T09:10:08.456Z,100591.47
2023-04-22T09:12:35.000Z,100589.66
2023-04-22T09:15:01.563Z,100578.69
2023-04-22T09:17:33.524Z,100584.13
2023-04-22T09:20:01.529Z,100582.31
2023-04-22T09:22:29.288Z,100584.41
2023-04-22T09:24:55.875Z,100599.78
2023-04-22T09:27:25.090Z,100594.41
2023-04-22T09:29:55.159Z,100590.34
2023-04-22T09:32:25.156Z,100608.03
2023-04-22T09:34:53.659Z,100620.72
2023-04-22T09:37:36.047Z,100633.78
2023-04-22T09:40:09.721Z,100629.84
2023-04-22T09:42:48.435Z,100633.72
2023-04-22T09:45:26.076Z,100650.50
2023-04-22T09:47:52.742Z,100641.50
2023-04-22T09:50:24.817Z,100644.84
2023-04-22T09:52:56.240Z,100646.34
2023-04-22T09:55:27.572Z,100647.88
2023-04-22T09:57:55.756Z,100642.25
2023-04-22T10:00:27.294Z,100648.91
2023-04-22T10:02:54.097Z,100649.19
2023-04-22T10:05:21.184Z,100639.94
2023-04-22T10:07:47.821Z,100640.22
2023-04-22T10:10:14.632Z,100642.00
2023-04-22T10:12:41.511Z,100635.91
2023-04-22T10:15:08.429Z,100635.97
2023-04-22T10:17:38.631Z,100657.91
2023-04-22T10:20:08.168Z,100657.50
2023-04-22T10:22:35.792Z,100647.81
2023-04-22T10:25:02.542Z,100646.16
2023-04-22T10:27:29.180Z,100649.16
2023-04-22T10:29:57.603Z,100648.31
2023-04-22T10:32:26.073Z,100667.97
2023-04-22T10:35:11.797Z,100669.09
2023-04-22T10:37:41.724Z,100669.72
2023-04-22T10:40:11.749Z,100662.22
2023-04-22T10:42:41.515Z,100644.69
2023-04-22T10:45:13.788Z,100641.53
2023-04-22T10:47:42.049Z,100636.16
2023-04-22T10:50:26.516Z,100634.25
2023-04-22T10:53:48.368Z,100636.00
2023-04-22T10:56:20.861Z,100639.44
2023-04-22T10:58:49.304Z,100640.34
2023-04-22T11:01:16.016Z,100645.88
2023-04-22T11:03:42.658Z,100639.75
2023-04-22T11:06:22.308Z,100633.22
2023-04-22T11:08:50.137Z,100634.94
2023-04-22T11:11:18.727Z,100658.59
2023-04-22T11:13:47.593Z,100693.22
2023-04-22T11:16:14.331Z,100698.97
2023-04-22T11:18:41.098Z,100681.34
2023-04-22T11:21:08.892Z,100676.88
2023-04-22T11:23:36.428Z,100686.75
2023-04-22T11:26:06.461Z,100670.94
2023-04-22T11:28:33.448Z,100671.38
2023-04-22T11:31:07.183Z,100683.88
2023-04-22T11:33:34.641Z,100659.09
2023-04-22T11:36:01.318Z,100641.03
2023-04-22T11:38:27.988Z,100650.69
2023-04-22T11:40:55.948Z,100671.00
2023-04-22T11:43:22.437Z,100670.94
2023-04-22T11:45:49.000Z,100671.56
2023-04-22T11:48:16.746Z,100690.41
2023-04-22T11:50:48.172Z,100688.06
2023-04-22T11:53:18.446Z,100665.88
2023-04-22T11:55:46.948Z,100644.22
2023-04-22T11:58:16.329Z,100663.59
2023-04-22T12:00:51.293Z,100687.47
2023-04-22T12:03:22.536Z,100664.66
2023-04-22T12:05:59.504Z,100692.47
2023-04-22T12:08:30.512Z,100693.00
2023-04-22T12:11:02.386Z,100676.97
2023-04-22T12:13:31.450Z,100658.69
2023-04-22T12:16:01.171Z,100668.16
2023-04-22T12:18:32.331Z,100658.50
2023-04-22T12:21:05.016Z,100642.72
2023-04-22T12:23:59.311Z,100644.66
2023-04-22T12:26:29.627Z,100649.09
2023-04-22T12:28:58.120Z,100644.00
2023-04-22T12:31:25.448Z,100643.13
2023-04-22T12:33:52.221Z,100649.34
2023-04-22T12:36:20.911Z,100644.38
2023-04-22T12:38:47.872Z,100635.84
2023-04-22T12:41:15.814Z,100637.22
2023-04-22T12:43:42.323Z,100641.69
2023-04-22T12:46:09.421Z,100636.66
2023-04-22T12:48:39.508Z,100634.66
2023-04-22T12:51:06.956Z,100646.75
2023-04-22T12:53:33.782Z,100653.59
2023-04-22T12:56:00.297Z,100646.56
2023-04-22T12:58:27.264Z,100661.16
2023-04-22T13:00:53.792Z,100660.88
2023-04-22T13:03:21.026Z,100670.47
2023-04-22T13:05:47.747Z,100677.41
2023-04-22T13:08:14.292Z,100684.63
2023-04-22T13:10:40.907Z,100684.09
2023-04-22T13:15:39.118Z,100677.25
2023-04-22T13:18:06.126Z,100679.91
2023-04-22T13:20:32.745Z,100676.28
2023-04-22T13:22:59.430Z,100671.88
2023-04-22T13:25:26.052Z,100672.63
2023-04-22T13:27:52.578Z,100669.97
2023-04-22T13:30:20.094Z,100669.06
2023-04-22T13:32:46.695Z,100664.78
2023-04-22T13:35:13.551Z,100674.59
2023-04-22T13:37:40.070Z,100681.81
2023-04-22T13:40:08.282Z,100679.09
2023-04-22T13:42:35.150Z,100672.00
2023-04-22T13:45:01.783Z,100670.44
2023-04-22T13:47:28.284Z,100670.47
2023-04-22T13:49:54.816Z,100675.44
2023-04-22T13:52:21.781Z,100678.22
2023-04-22T13:54:48.284Z,100678.94
2023-04-22T13:57:14.879Z,100684.13
2023-04-22T13:59:41.864Z,100687.13
2023-04-22T14:02:08.782Z,100691.97
2023-04-22T14:04:35.432Z,100694.75
2023-04-22T14:07:02.001Z,100691.16
2023-04-22T14:09:28.662Z,100693.97
2023-04-22T14:11:55.391Z,100698.81
2023-04-22T14:14:22.228Z,100698.00
2023-04-22T14:16:48.964Z,100701.13
2023-04-22T14:19:15.609Z,100705.28
2023-04-22T14:21:42.122Z,100711.34
2023-04-22T14:24:08.639Z,100698.88
2023-04-22T14:26:35.237Z,100706.28
2023-04-22T14:29:02.034Z,100708.94
2023-04-22T14:31:28.591Z,100711.66
2023-04-22T14:33:55.905Z,100712.13
2023-04-22T14:36:22.474Z,100712.63
2023-04-22T14:38:49.283Z,100719.53
2023-04-22T14:41:15.944Z,100722.19
2023-04-22T14:43:42.450Z,100730.59
2023-04-22T14:46:08.991Z,100727.38
2023-04-22T14:48:35.662Z,100730.09
2023-04-22T14:51:02.204Z,100735.59
2023-04-22T14:53:28.718Z,100733.19
2023-04-22T14:55:56.552Z,100726.03
2023-04-22T14:58:23.312Z,100727.81
2023-04-22T15:00:50.531Z,100735.84
2023-04-22T15:03:17.212Z,100728.09
2023-04-22T15:05:44.156Z,100724.38
2023-04-22T15:08:10.675Z,100727.53
2023-04-22T15:10:37.204Z,100734.81
2023-04-22T15:13:03.752Z,100733.97
2023-04-22T15:15:30.274Z,100732.69
2023-04-22T15:17:56.914Z,100726.34
2023-04-22T15:20:23.780Z,100722.66
2023-04-22T15:22:50.311Z,100720.16
2023-04-22T15:25:18.222Z,100714.88
2023-04-22T15:27:45.167Z,100709.63
2023-04-22T15:30:11.935Z,100716.25
2023-04-22T15:32:41.258Z,100709.94
2023-04-22T15:35:08.563Z,100716.94
2023-04-22T15:37:35.148Z,100707.84
2023-04-22T15:40:01.836Z,100707.84
2023-04-22T15:42:28.348Z,100710.41
2023-04-22T15:44:54.846Z,100714.06
2023-04-22T15:47:21.444Z,100718.53
2023-04-22T15:49:49.457Z,100720.41
2023-04-22T15:52:17.638Z,100707.91
2023-04-22T15:54:44.245Z,100715.22
2023-04-22T15:57:10.875Z,100707.91
2023-04-22T15:59:37.502Z,100701.03
2023-04-22T16:02:04.331Z,100711.59
2023-04-22T16:04:31.333Z,100709.47
2023-04-22T16:06:59.260Z,100714.25
2023-04-22T16:09:26.190Z,100711.97
2023-04-22T16:11:53.546Z,100719.34
2023-04-22T16:14:20.553Z,100736.13
2023-04-22T16:16:47.246Z,100734.03
2023-04-22T16:19:13.971Z,100737.25
2023-04-22T16:21:40.599Z,100733.56
2023-04-22T16:24:07.180Z,100741.00
2023-04-22T16:26:33.836Z,100736.19
2023-04-22T16:29:00.595Z,100745.91
2023-04-22T16:31:27.091Z,100746.06
2023-04-22T16:33:53.676Z,100732.03
2023-04-22T16:36:20.251Z,100737.25
2023-04-22T16:38:46.764Z,100736.56
2023-04-22T16:41:15.054Z,100730.13
2023-04-22T16:43:41.457Z,100729.25
2023-04-22T16:46:08.208Z,100717.63
2023-04-22T16:48:34.858Z,100725.91
2023-04-22T16:51:01.530Z,100713.47
2023-04-22T16:53:28.241Z,100716.78
2023-04-22T16:55:54.858Z,100720.94
2023-04-22T16:58:21.607Z,100722.34
2023-04-22T17:00:48.143Z,100733.25
2023-04-22T17:03:14.879Z,100743.81
2023-04-22T17:05:41.556Z,100742.94
2023-04-22T17:08:08.880Z,100736.72
2023-04-22T17:10:35.524Z,100736.53
2023-04-22T17:13:02.991Z,100727.72
2023-04-22T17:15:29.484Z,100732.84
2023-04-22T17:17:56.025Z,100728.13
2023-04-22T17:20:22.855Z,100725.59
2023-04-22T17:22:49.673Z,100726.13
2023-04-22T17:25:16.190Z,100723.28
2023-04-22T17:27:42.750Z,100717.78
2023-04-22T17:30:09.526Z,100721.97
2023-04-22T17:32:36.290Z,100719.72
2023-04-22T17:35:02.889Z,100715.03
2023-04-22T17:37:29.465Z,100715.13
2023-04-22T17:39:56.359Z,100724.22
2023-04-22T17:44:50.679Z,100722.28
2023-04-22T17:47:17.254Z,100718.44
2023-04-22T17:49:43.952Z,100724.38
2023-04-22T17:52:10.608Z,100740.38
2023-04-22T17:54:37.156Z,100738.06
2023-04-22T17:57:04.072Z,100735.88
2023-04-22T17:59:30.896Z,100746.19
2023-04-22T18:01:58.984Z,100749.81
2023-04-22T18:04:26.395Z,100741.88
2023-04-22T18:06:53.106Z,100744.16
2023-04-22T18:09:19.756Z,100744.38
2023-04-22T18:11:46.491Z,100740.34
2023-04-22T18:14:13.064Z,100734.59
2023-04-22T18:16:39.634Z,100740.81
2023-04-22T18:19:06.888Z,100746.28
2023-04-22T18:21:34.341Z,100751.84
2023-04-22T18:24:02.609Z,100746.66
2023-04-22T18:26:29.280Z,100749.56
2023-04-22T18:28:55.840Z,100746.03
2023-04-22T18:31:22.392Z,100753.63
2023-04-22T18:33:49.038Z,100755.75
2023-04-22T18:36:15.590Z,100758.38
2023-04-22T18:38:42.938Z,100753.19
2023-04-22T18:41:13.596Z,100755.75
2023-04-22T18:43:40.859Z,100764.66
2023-04-22T18:46:08.372Z,100769.44
2023-04-22T18:48:34.917Z,100780.28
2023-04-22T18:51:01.539Z,100780.97
2023-04-22T18:53:28.142Z,100792.25
2023-04-22T18:55:54.705Z,100796.19
2023-04-22T18:58:23.105Z,100792.03
2023-04-22T19:00:50.119Z,100801.28
2023-04-22T19:03:17.010Z,100810.94
2023-04-22T19:05:43.639Z,100805.19
2023-04-22T19:08:10.444Z,100809.84
2023-04-22T19:10:37.086Z,100814.38
2023-04-22T19:13:04.532Z,100814.59
2023-04-22T19:15:31.236Z,100806.88
2023-04-22T19:17:57.966Z,100805.16
2023-04-22T19:20:24.520Z,100806.13
2023-04-22T19:22:51.018Z,100822.19
2023-04-22T19:25:19.575Z,100819.78
2023-04-22T19:27:46.167Z,100813.88
2023-04-22T19:30:13.055Z,100809.56
2023-04-22T19:32:39.822Z,100814.91
2023-04-22T19:35:07.877Z,100817.75
2023-04-22T19:37:34.425Z,100812.34
2023-04-22T19:40:01.205Z,100812.34
2023-04-22T19:42:27.969Z,100808.91
2023-04-22T19:44:54.740Z,100806.25
2023-04-22T19:47:21.410Z,100814.19
2023-04-22T19:49:48.186Z,100809.25
2023-04-22T19:52:15.713Z,100818.00
2023-04-22T19:54:45.878Z,100809.25
2023-04-22T19:57:13.990Z,100808.97
2023-04-22T19:59:41.096Z,100809.03
2023-04-22T20:02:09.698Z,100811.75
2023-04-22T20:04:37.100Z,100803.81
2023-04-22T20:07:04.124Z,100812.41
2023-04-22T20:09:32.731Z,100807.22
2023-04-22T20:11:59.743Z,100808.25
2023-04-22T20:14:26.703Z,100803.91
2023-04-22T20:16:53.376Z,100799.53
2023-04-22T20:19:20.190Z,100795.06
2023-04-22T20:21:48.862Z,100797.78
2023-04-22T20:24:19.788Z,100782.00
2023-04-22T20:26:47.995Z,100782.50
2023-04-22T20:29:16.004Z,100777.91
2023-04-22T20:31:43.294Z,100777.75
2023-04-22T20:34:09.901Z,100773.59
2023-04-22T20:36:39.310Z,100778.16
2023-04-22T20:39:06.308Z,100779.09
2023-04-22T20:41:36.437Z,100774.66
2023-04-22T20:44:03.103Z,100770.44
2023-04-22T20:46:29.839Z,100777.63
2023-04-22T20:48:56.356Z,100775.19
2023-04-22T20:51:23.030Z,100777.69
2023-04-22T20:56:17.521Z,100785.47
2023-04-22T20:58:44.154Z,100781.19
2023-04-22T21:01:10.868Z,100785.63
2023-04-22T21:03:39.265Z,100788.06
2023-04-22T21:06:06.428Z,100780.06
2023-04-22T21:08:33.872Z,100777.50
2023-04-22T21:11:00.790Z,100787.00
2023-04-22T21:13:28.840Z,100784.22
2023-04-22T21:16:00.228Z,100776.31
2023-04-22T21:18:26.976Z,100779.88
2023-04-22T21:20:53.874Z,100771.94
2023-04-22T21:23:20.952Z,100783.44
2023-04-22T21:25:50.272Z,100769.31
2023-04-22T21:28:17.639Z,100772.00
2023-04-22T21:30:44.571Z,100769.13
2023-04-22T21:33:11.159Z,100770.25
2023-04-22T21:35:39.301Z,100772.09
2023-04-22T21:38:06.058Z,100778.25
2023-04-22T21:40:32.623Z,100772.09
2023-04-22T21:43:00.305Z,100774.84
2023-04-22T21:45:30.740Z,100766.88
2023-04-22T21:48:00.798Z,100767.69
2023-04-22T21:50:27.658Z,100770.13
2023-04-22T21:52:54.218Z,100768.31
2023-04-22T21:55:20.760Z,100767.41
2023-04-22T21:57:47.361Z,100776.03
2023-04-22T22:00:17.441Z,100781.31
2023-04-22T22:02:48.349Z,100770.81
2023-04-22T22:05:15.591Z,100780.59
2023-04-22T22:07:43.011Z,100776.31
2023-04-22T22:10:11.943Z,100775.59
2023-04-22T22:12:38.573Z,100783.56
2023-04-22T22:15:11.559Z,100776.16
2023-04-22T22:17:40.163Z,100779.78
2023-04-22T22:20:11.478Z,100782.25
2023-04-22T22:22:39.058Z,100771.44
2023-04-22T22:25:10.402Z,100762.38
2023-04-22T22:27:38.380Z,100766.38
2023-04-22T22:30:05.562Z,100769.91
2023-04-22T22:32:32.150Z,100770.91
2023-04-22T22:34:59.165Z,100770.97
2023-04-22T22:37:25.845Z,100768.41
2023-04-22T22:39:52.454Z,100770.38
2023-04-22T22:42:18.978Z,100770.38
2023-04-22T22:44:45.560Z,100766.16
2023-04-22T22:47:12.129Z,100767.00
2023-04-22T22:49:38.985Z,100760.25
2023-04-22T22:52:06.432Z,100760.47
2023-04-22T22:54:37.380Z,100759.75
2023-04-22T22:57:07.353Z,100755.19
2023-04-22T22:59:34.348Z,100760.47
2023-04-22T23:02:00.929Z,100755.34
2023-04-22T23:04:28.235Z,100757.06
2023-04-22T23:06:55.333Z,100756.97
2023-04-22T23:09:22.313Z,100765.69
2023-04-22T23:11:51.687Z,100760.69
2023-04-22T23:14:19.509Z,100756.31
2023-04-22T23:16:47.188Z,100758.03
2023-04-22T23:19:15.136Z,100758.81
2023-04-22T23:21:42.165Z,100751.03
2023-04-22T23:24:13.954Z,100747.63
2023-04-22T23:26:41.188Z,100748.59
2023-04-22T23:29:08.159Z,100743.41
2023-04-22T23:31:35.287Z,100734.81
2023-04-22T23:34:03.907Z,100741.75
2023-04-22T23:36:33.802Z,100737.38
2023-04-22T23:39:00.836Z,100721.53
2023-04-22T23:41:27.585Z,100719.97
2023-04-22T23:43:54.139Z,100715.56
2023-04-22T23:46:20.725Z,100719.09
2023-04-22T23:48:47.332Z,100714.88
2023-04-22T23:51:16.355Z,100713.22
2023-04-22T23:53:46.614Z,100709.69
2023-04-22T23:56:13.683Z,100700.84
2023-04-22T23:58:40.903Z,100708.63
